Main page
METAR-TAF:

METAR-TAF

Airports :

Simón Bolívar International Airport

Caracas, Venezuela

latitude: 10-36N, longitude: 066-59W, elevation: 43 m

Current weather observation

The report was made 49 minutes ago, at 10:00 UTC
Calm wind
Temperature 25°C
Humidity 83%
Pressure 1012 hPa
Visibility 10 km or more
Scattered clouds at a height of 1600 ft

METAR: SVMI 291000Z 00000KT 9999 SCT016 25/22 Q1012

Time: 06:49 (10:49 UTC)

Forecast

The report was made 6 hours and 49 minutes ago, at 04:00 UTC
Forecast valid from 29 at 06 UTC to 30 at 06 UTC
Wind kt from the North
Visibility 10 km or more
Few clouds at a height of 1600 ft
Temporary
from 29 at 06 UTC to 29 at 10 UTC
Visibility 10 km or more
no clouds below 1500 m and no cumulonimbus
From 29 at 1100 UTC
Wind kt from the North
Visibility 10 km or more
Few clouds at a height of 1600 ft

TAF: SVMI 290400Z 2906/3006 00000KT 9999 FEW016 TX33/2918Z TN24/2908Z TEMPO 2906/2910 CAVOK FM291100 00000KT 9999 FEW016

Weather observations and forecasts of more than 4000 airports (METAR and TAF reports).

The available stations are represented by yellow and red dots on the map.

Hover mouse over dot to see the name of the station.

Then click to see weather observations and forecasts.

To change the map : click on the green buttons with a black cross to zoom in, on the green button with a dash to zoom out, or on the green arrows for adjacent maps.


METAR-TAF: